createdAt,value
2022-10-13T00:00:01.770Z,9.90
2022-10-13T00:01:34.443Z,9.80
2022-10-13T00:03:06.215Z,9.80
2022-10-13T00:04:38.912Z,9.70
2022-10-13T00:06:10.963Z,9.70
2022-10-13T00:07:44.987Z,9.60
2022-10-13T00:09:17.688Z,9.70
2022-10-13T00:10:50.841Z,9.70
2022-10-13T00:12:23.587Z,9.70
2022-10-13T00:13:56.901Z,9.60
2022-10-13T00:15:28.770Z,9.60
2022-10-13T00:17:01.453Z,9.60
2022-10-13T00:18:34.158Z,9.50
2022-10-13T00:20:07.309Z,9.50
2022-10-13T00:21:39.982Z,9.50
2022-10-13T00:23:13.859Z,9.50
2022-10-13T00:24:51.171Z,9.40
2022-10-13T00:26:24.983Z,9.40
2022-10-13T00:27:57.692Z,9.40
2022-10-13T00:29:30.375Z,9.30
2022-10-13T00:31:02.168Z,9.30
2022-10-13T00:32:34.892Z,9.30
2022-10-13T00:34:07.666Z,9.30
2022-10-13T00:35:42.862Z,9.30
2022-10-13T00:37:15.611Z,9.30
2022-10-13T00:38:48.747Z,9.30
2022-10-13T00:40:21.463Z,9.30
2022-10-13T00:41:54.412Z,9.30
2022-10-13T00:43:28.172Z,9.30
2022-10-13T00:45:02.366Z,9.20
2022-10-13T00:46:35.829Z,9.20
2022-10-13T00:48:07.621Z,9.20
2022-10-13T00:49:40.294Z,9.20
2022-10-13T00:51:14.125Z,9.30
2022-10-13T00:52:48.277Z,9.30
2022-10-13T00:54:24.465Z,9.20
2022-10-13T00:55:57.160Z,9.20
2022-10-13T00:57:28.834Z,9.30
2022-10-13T00:59:02.173Z,9.20
2022-10-13T01:00:35.947Z,9.20
2022-10-13T01:02:08.886Z,9.20
2022-10-13T01:03:40.644Z,9.20
2022-10-13T01:05:13.303Z,9.20
2022-10-13T01:06:45.342Z,9.30
2022-10-13T01:08:18.990Z,9.30
2022-10-13T01:09:52.193Z,9.30
2022-10-13T01:11:31.260Z,9.30
2022-10-13T01:13:09.456Z,9.30
2022-10-13T01:14:47.493Z,9.40
2022-10-13T01:16:22.588Z,9.40
2022-10-13T01:17:58.124Z,9.40
2022-10-13T01:19:45.089Z,9.40
2022-10-13T01:21:23.672Z,9.40
2022-10-13T01:23:00.633Z,9.40
2022-10-13T01:24:40.662Z,9.40
2022-10-13T01:26:22.084Z,9.40
2022-10-13T01:28:01.133Z,9.40
2022-10-13T01:29:46.177Z,9.40
2022-10-13T01:31:21.269Z,9.40
2022-10-13T01:32:57.419Z,9.40
2022-10-13T01:34:34.039Z,9.40
2022-10-13T01:36:13.087Z,9.40
2022-10-13T01:37:48.072Z,9.50
2022-10-13T01:39:25.611Z,9.50
2022-10-13T01:41:01.724Z,9.50
2022-10-13T01:42:36.980Z,9.50
2022-10-13T01:44:12.904Z,9.50
2022-10-13T01:45:49.905Z,9.50
2022-10-13T01:47:22.623Z,9.60
2022-10-13T01:48:56.834Z,9.60
2022-10-13T01:50:29.720Z,9.60
2022-10-13T01:52:03.971Z,9.50
2022-10-13T01:53:37.103Z,9.50
2022-10-13T01:55:10.541Z,9.60
2022-10-13T01:56:43.258Z,9.60
2022-10-13T01:58:15.038Z,9.60
2022-10-13T01:59:47.753Z,9.60
2022-10-13T02:01:26.033Z,9.60
2022-10-13T02:03:06.677Z,9.60
2022-10-13T02:04:44.998Z,9.70
2022-10-13T02:06:21.083Z,9.70
2022-10-13T02:07:56.468Z,9.70
2022-10-13T02:09:33.395Z,9.70
2022-10-13T02:11:09.559Z,9.70
2022-10-13T02:12:45.444Z,9.70
2022-10-13T02:14:20.734Z,9.70
2022-10-13T02:15:53.679Z,9.70
2022-10-13T02:17:28.271Z,9.70
2022-10-13T02:19:03.132Z,9.70
2022-10-13T02:20:36.364Z,9.70
2022-10-13T02:22:10.704Z,9.70
2022-10-13T02:23:43.705Z,9.60
2022-10-13T02:25:16.359Z,9.60
2022-10-13T02:26:49.136Z,9.60
2022-10-13T02:28:22.397Z,9.50
2022-10-13T02:29:55.991Z,9.50
2022-10-13T02:31:28.666Z,9.50
2022-10-13T02:33:02.979Z,9.50
2022-10-13T02:34:35.662Z,9.50
2022-10-13T02:36:08.389Z,9.50
2022-10-13T02:37:40.082Z,9.50
2022-10-13T02:39:12.824Z,9.40
2022-10-13T02:40:50.311Z,9.50
2022-10-13T02:42:23.448Z,9.50
2022-10-13T02:43:56.945Z,9.60
2022-10-13T02:45:29.637Z,9.50
2022-10-13T02:47:02.436Z,9.50
2022-10-13T02:48:36.455Z,9.50
2022-10-13T02:50:08.597Z,9.50
2022-10-13T02:51:41.282Z,9.90
2022-10-13T02:53:14.288Z,9.60
2022-10-13T02:54:46.941Z,9.70
2022-10-13T02:56:19.729Z,9.70
2022-10-13T02:57:52.460Z,9.70
2022-10-13T02:59:25.114Z,9.80
2022-10-13T03:01:05.640Z,9.80
2022-10-13T03:02:38.474Z,9.90
2022-10-13T03:04:12.613Z,10.00
2022-10-13T03:05:44.405Z,10.00
2022-10-13T03:07:17.072Z,10.00
2022-10-13T03:08:49.853Z,10.10
2022-10-13T03:10:22.550Z,10.10
2022-10-13T03:11:55.248Z,10.00
2022-10-13T03:13:28.376Z,10.00
2022-10-13T03:15:01.229Z,10.00
2022-10-13T03:16:33.858Z,9.90
2022-10-13T03:18:06.583Z,9.90
2022-10-13T03:19:40.578Z,9.90
2022-10-13T03:21:13.282Z,9.90
2022-10-13T03:22:49.575Z,9.90
2022-10-13T03:24:22.652Z,9.80
2022-10-13T03:25:55.384Z,9.80
2022-10-13T03:27:28.152Z,9.80
2022-10-13T03:29:00.856Z,9.80
2022-10-13T03:30:33.567Z,9.90
2022-10-13T03:32:05.466Z,9.90
2022-10-13T03:33:38.229Z,9.90
2022-10-13T03:35:12.313Z,10.00
2022-10-13T03:36:44.996Z,10.00
2022-10-13T03:38:17.629Z,10.00
2022-10-13T03:39:50.310Z,10.00
2022-10-13T03:41:22.987Z,10.00
2022-10-13T03:42:55.658Z,9.90
2022-10-13T03:44:28.328Z,9.90
2022-10-13T03:46:00.881Z,9.90
2022-10-13T03:47:35.784Z,9.80
2022-10-13T03:49:07.560Z,9.80
2022-10-13T03:50:41.638Z,9.90
2022-10-13T03:52:14.391Z,9.90
2022-10-13T03:53:47.729Z,9.90
2022-10-13T03:55:20.376Z,9.90
2022-10-13T03:56:53.067Z,10.00
2022-10-13T03:58:26.103Z,10.10
2022-10-13T03:59:58.893Z,10.10
2022-10-13T04:01:32.143Z,10.10
2022-10-13T04:03:04.920Z,10.10
2022-10-13T04:04:38.214Z,10.20
2022-10-13T04:06:12.333Z,10.20
2022-10-13T04:07:44.991Z,10.10
2022-10-13T04:09:17.660Z,10.10
2022-10-13T04:10:58.673Z,10.10
2022-10-13T04:12:33.565Z,10.10
2022-10-13T04:14:06.258Z,10.10
2022-10-13T04:15:39.100Z,10.10
2022-10-13T04:17:11.797Z,10.10
2022-10-13T04:18:44.898Z,10.10
2022-10-13T04:20:19.038Z,10.10
2022-10-13T04:21:53.059Z,10.10
2022-10-13T04:23:25.787Z,10.10
2022-10-13T04:24:58.488Z,10.10
2022-10-13T04:26:32.518Z,10.10
2022-10-13T04:28:05.392Z,10.10
2022-10-13T04:29:37.144Z,10.20
2022-10-13T04:31:09.833Z,10.20
2022-10-13T04:32:42.584Z,10.20
2022-10-13T04:34:15.254Z,10.20
2022-10-13T04:35:50.096Z,10.20
2022-10-13T04:37:23.263Z,10.20
2022-10-13T04:38:56.018Z,10.30
2022-10-13T04:40:28.695Z,10.30
2022-10-13T04:42:01.389Z,10.30
2022-10-13T04:43:33.248Z,10.30
2022-10-13T04:45:06.458Z,10.30
2022-10-13T04:46:39.117Z,10.30
2022-10-13T04:48:11.777Z,10.30
2022-10-13T04:49:44.462Z,10.40
2022-10-13T04:51:17.754Z,10.40
2022-10-13T04:52:51.802Z,10.40
2022-10-13T04:54:24.486Z,10.40
2022-10-13T04:55:56.280Z,10.40
2022-10-13T04:57:28.925Z,10.50
2022-10-13T04:59:01.633Z,10.50
2022-10-13T05:00:33.387Z,10.50
2022-10-13T05:02:06.102Z,10.50
2022-10-13T05:03:38.783Z,10.50
2022-10-13T05:05:11.591Z,10.50
2022-10-13T05:07:12.692Z,10.50
2022-10-13T05:08:40.031Z,10.50
2022-10-13T05:10:12.755Z,10.60
2022-10-13T05:11:45.488Z,10.60
2022-10-13T05:13:18.149Z,10.60
2022-10-13T05:14:50.829Z,10.60
2022-10-13T05:16:23.893Z,10.60
2022-10-13T05:17:56.589Z,10.60
2022-10-13T05:19:29.524Z,10.60
2022-10-13T05:21:07.145Z,10.60
2022-10-13T05:22:39.828Z,10.60
2022-10-13T05:24:13.758Z,10.60
2022-10-13T05:25:46.530Z,10.70
2022-10-13T05:27:20.301Z,10.70
2022-10-13T05:28:53.067Z,10.70
2022-10-13T05:30:26.131Z,10.70
2022-10-13T05:31:58.853Z,10.70
2022-10-13T05:33:31.614Z,10.70
2022-10-13T05:35:04.511Z,10.70
2022-10-13T05:36:37.175Z,10.70
2022-10-13T05:38:10.124Z,10.70
2022-10-13T05:39:48.627Z,10.80
2022-10-13T05:41:22.305Z,10.80
2022-10-13T05:42:55.010Z,10.80
2022-10-13T05:44:27.881Z,10.80
2022-10-13T05:45:59.583Z,10.80
2022-10-13T05:47:32.262Z,10.80
2022-10-13T05:49:05.061Z,10.80
2022-10-13T05:50:37.826Z,10.80
2022-10-13T05:52:12.776Z,10.90
2022-10-13T05:53:51.063Z,10.90
2022-10-13T05:55:27.250Z,10.90
2022-10-13T05:57:01.576Z,11.00
2022-10-13T05:58:34.562Z,10.90
2022-10-13T06:00:08.973Z,10.90
2022-10-13T06:01:42.084Z,10.90
2022-10-13T06:03:16.423Z,11.00
2022-10-13T06:04:51.742Z,11.00
2022-10-13T06:06:30.481Z,11.00
2022-10-13T06:08:04.117Z,11.00
2022-10-13T06:09:37.959Z,11.10
2022-10-13T06:11:12.049Z,11.10
2022-10-13T06:12:44.784Z,11.10
2022-10-13T06:14:17.718Z,11.20
2022-10-13T06:15:50.375Z,11.20
2022-10-13T06:17:23.124Z,11.20
2022-10-13T06:18:55.006Z,11.30
2022-10-13T06:20:28.404Z,11.30
2022-10-13T06:22:03.652Z,11.30
2022-10-13T06:23:36.648Z,11.30
2022-10-13T06:25:09.975Z,11.30
2022-10-13T06:26:44.032Z,11.30
2022-10-13T06:28:18.689Z,11.30
2022-10-13T06:29:51.443Z,11.30
2022-10-13T06:31:24.160Z,11.30
2022-10-13T06:32:57.024Z,11.40
2022-10-13T06:34:29.736Z,11.30
2022-10-13T06:36:03.390Z,11.30
2022-10-13T06:37:36.461Z,11.40
2022-10-13T06:39:09.543Z,11.40
2022-10-13T06:40:42.300Z,11.40
2022-10-13T06:42:16.331Z,11.40
2022-10-13T06:43:49.536Z,11.40
2022-10-13T06:45:22.253Z,11.50
2022-10-13T06:46:54.987Z,11.50
2022-10-13T06:48:27.931Z,11.50
2022-10-13T06:50:00.605Z,11.60
2022-10-13T06:51:33.301Z,11.60
2022-10-13T06:53:05.967Z,11.60
2022-10-13T06:54:38.817Z,11.70
2022-10-13T06:56:11.543Z,11.70
2022-10-13T06:57:45.625Z,11.70
2022-10-13T06:59:18.452Z,11.60
2022-10-13T07:00:53.810Z,11.60
2022-10-13T07:02:26.637Z,11.70
2022-10-13T07:03:59.388Z,11.70
2022-10-13T07:05:32.544Z,11.70
2022-10-13T07:07:05.273Z,11.80
2022-10-13T07:08:38.022Z,11.80
2022-10-13T07:10:10.727Z,11.90
2022-10-13T07:11:44.856Z,11.80
2022-10-13T07:13:19.024Z,11.90
2022-10-13T07:14:51.758Z,11.90
2022-10-13T07:16:24.465Z,11.90
2022-10-13T07:17:57.233Z,11.90
2022-10-13T07:19:29.888Z,12.00
2022-10-13T07:21:02.765Z,12.00
2022-10-13T07:22:36.539Z,12.00
2022-10-13T07:24:12.233Z,12.10
2022-10-13T07:25:45.177Z,12.10
2022-10-13T07:27:17.945Z,12.10
2022-10-13T07:28:52.105Z,12.10
2022-10-13T07:30:24.814Z,12.10
2022-10-13T07:31:57.512Z,12.20
2022-10-13T07:33:30.606Z,12.20
2022-10-13T07:35:03.331Z,12.20
2022-10-13T07:36:37.143Z,12.20
2022-10-13T07:38:10.250Z,12.20
2022-10-13T07:39:42.964Z,12.20
2022-10-13T07:41:15.810Z,12.20
2022-10-13T07:42:48.481Z,12.20
2022-10-13T07:44:22.511Z,12.20
2022-10-13T07:45:55.483Z,12.20
2022-10-13T07:47:29.209Z,12.20
2022-10-13T07:49:01.919Z,12.20
2022-10-13T07:50:34.679Z,12.20
2022-10-13T07:52:07.573Z,12.10
2022-10-13T07:53:40.769Z,12.20
2022-10-13T07:55:13.633Z,12.20
2022-10-13T07:56:46.395Z,12.20
2022-10-13T07:58:19.104Z,12.20
2022-10-13T07:59:53.343Z,12.30
2022-10-13T08:01:26.376Z,12.40
2022-10-13T08:02:59.148Z,12.40
2022-10-13T08:04:32.110Z,12.60
2022-10-13T08:06:05.794Z,12.70
2022-10-13T08:07:40.092Z,12.80
2022-10-13T08:09:12.834Z,12.90
2022-10-13T08:10:45.573Z,13.00
2022-10-13T08:12:18.622Z,13.10
2022-10-13T08:13:52.410Z,13.10
2022-10-13T08:15:26.514Z,13.20
2022-10-13T08:16:59.406Z,13.20
2022-10-13T08:18:32.372Z,13.20
2022-10-13T08:20:05.493Z,13.20
2022-10-13T08:21:57.637Z,13.10
2022-10-13T08:23:31.377Z,13.10
2022-10-13T08:25:04.291Z,13.10
2022-10-13T08:26:36.942Z,13.20
2022-10-13T08:28:14.896Z,13.20
2022-10-13T08:29:47.677Z,13.20
2022-10-13T08:31:22.142Z,13.30
2022-10-13T08:32:54.946Z,13.20
2022-10-13T08:34:27.688Z,13.20
2022-10-13T08:36:00.351Z,13.20
2022-10-13T08:37:33.052Z,13.20
2022-10-13T08:39:06.159Z,13.20
2022-10-13T08:40:39.259Z,13.10
2022-10-13T08:42:15.867Z,13.00
2022-10-13T08:44:27.934Z,13.00
2022-10-13T08:45:43.199Z,13.00
2022-10-13T08:47:30.026Z,13.10
2022-10-13T08:49:04.924Z,13.10
2022-10-13T08:50:40.142Z,13.20
2022-10-13T08:52:16.893Z,13.20
2022-10-13T08:53:50.439Z,13.30
2022-10-13T08:55:29.029Z,13.40
2022-10-13T08:58:41.629Z,13.40
2022-10-13T09:00:14.720Z,13.40
2022-10-13T09:01:49.339Z,13.50
2022-10-13T09:03:26.137Z,13.50
2022-10-13T09:04:59.885Z,13.60
2022-10-13T09:06:34.095Z,13.60
2022-10-13T09:08:11.543Z,13.60
2022-10-13T09:09:44.590Z,13.70
2022-10-13T09:11:17.401Z,13.80
2022-10-13T09:12:51.530Z,13.80
2022-10-13T09:14:25.277Z,13.90
2022-10-13T09:15:58.959Z,13.90
2022-10-13T09:17:32.660Z,13.80
2022-10-13T09:19:15.295Z,13.80
2022-10-13T09:20:48.010Z,13.80
2022-10-13T09:22:23.521Z,13.80
2022-10-13T09:24:07.175Z,13.80
2022-10-13T09:25:40.933Z,13.90
2022-10-13T09:27:15.452Z,13.90
2022-10-13T09:28:48.501Z,14.00
2022-10-13T09:30:39.272Z,14.00
2022-10-13T09:32:15.807Z,14.00
2022-10-13T09:33:57.594Z,14.10
2022-10-13T09:35:33.508Z,14.10
2022-10-13T09:37:06.701Z,14.10
2022-10-13T09:38:40.869Z,14.10
2022-10-13T09:40:15.639Z,14.20
2022-10-13T09:41:48.391Z,14.20
2022-10-13T09:43:26.015Z,14.30
2022-10-13T09:44:59.533Z,14.40
2022-10-13T09:46:33.843Z,14.50
2022-10-13T09:48:07.951Z,14.50
2022-10-13T09:49:42.414Z,14.60
2022-10-13T09:51:28.545Z,14.60
2022-10-13T09:53:11.480Z,14.70
2022-10-13T09:54:48.392Z,14.70
2022-10-13T09:56:23.562Z,14.70
2022-10-13T09:57:57.731Z,14.70
2022-10-13T09:59:33.844Z,14.70
2022-10-13T10:01:07.036Z,14.80
2022-10-13T10:02:43.020Z,14.80
2022-10-13T10:04:18.180Z,14.90
2022-10-13T10:05:52.073Z,15.00
2022-10-13T10:07:27.286Z,15.20
2022-10-13T10:09:04.224Z,15.30
2022-10-13T10:10:40.756Z,15.40
2022-10-13T10:12:16.451Z,15.40
2022-10-13T10:13:49.169Z,15.30
2022-10-13T10:15:25.376Z,15.30
2022-10-13T10:17:02.965Z,15.20
2022-10-13T10:18:37.724Z,15.10
2022-10-13T10:20:29.939Z,15.00
2022-10-13T10:22:07.362Z,15.00
2022-10-13T10:23:44.191Z,14.80
2022-10-13T10:25:23.811Z,14.80
2022-10-13T10:26:58.587Z,14.70
2022-10-13T10:28:39.255Z,14.60
2022-10-13T10:30:15.292Z,14.50
2022-10-13T10:31:52.835Z,14.60
2022-10-13T10:33:30.653Z,14.60
2022-10-13T10:35:06.621Z,14.70
2022-10-13T10:36:43.341Z,14.90
2022-10-13T10:38:23.626Z,15.00
2022-10-13T10:40:03.590Z,15.20
2022-10-13T10:41:41.103Z,15.20
2022-10-13T10:43:23.704Z,15.30
2022-10-13T10:44:57.779Z,15.30
2022-10-13T10:46:32.140Z,15.30
2022-10-13T10:48:07.965Z,15.30
2022-10-13T10:49:40.659Z,15.40
2022-10-13T10:51:14.393Z,15.50
2022-10-13T10:52:51.349Z,15.60
2022-10-13T10:54:27.653Z,15.70
2022-10-13T10:56:04.592Z,15.80
2022-10-13T10:57:39.743Z,16.00
2022-10-13T10:59:20.322Z,16.00
2022-10-13T11:00:54.943Z,16.10
2022-10-13T11:02:42.211Z,16.30
2022-10-13T11:04:36.376Z,16.40
2022-10-13T11:06:22.808Z,16.60
2022-10-13T11:07:56.952Z,16.70
2022-10-13T11:09:47.547Z,16.80
2022-10-13T11:11:39.142Z,16.80
2022-10-13T11:13:22.016Z,16.80
2022-10-13T11:15:03.921Z,16.90
2022-10-13T11:16:40.013Z,16.90
2022-10-13T11:18:31.511Z,17.10
2022-10-13T11:20:25.607Z,17.20
2022-10-13T11:22:19.415Z,17.30
2022-10-13T11:23:56.381Z,17.40
2022-10-13T11:25:39.468Z,17.50
2022-10-13T11:27:19.755Z,17.50
2022-10-13T11:28:52.563Z,17.50
2022-10-13T11:30:40.533Z,17.50
2022-10-13T11:32:30.366Z,17.60
2022-10-13T11:34:03.250Z,17.60
2022-10-13T11:35:35.990Z,17.60
2022-10-13T11:37:15.444Z,17.70
2022-10-13T11:38:51.322Z,17.70
2022-10-13T11:40:27.972Z,17.80
2022-10-13T11:42:06.661Z,17.70
2022-10-13T11:43:46.566Z,17.70
2022-10-13T11:45:34.179Z,17.70
2022-10-13T11:47:10.328Z,17.80
2022-10-13T11:48:53.025Z,17.90
2022-10-13T11:50:30.267Z,18.00
2022-10-13T11:52:08.240Z,18.00
2022-10-13T11:53:45.861Z,18.00
2022-10-13T11:55:19.746Z,18.10
2022-10-13T11:56:54.918Z,18.20
2022-10-13T11:58:28.593Z,18.20
2022-10-13T12:00:01.288Z,18.00
2022-10-13T12:01:34.019Z,18.00
2022-10-13T12:03:06.995Z,17.90
2022-10-13T12:04:45.554Z,17.90
2022-10-13T12:06:33.247Z,17.80
2022-10-13T12:08:06.929Z,17.80
2022-10-13T12:09:47.970Z,17.70
2022-10-13T12:11:25.172Z,17.70
2022-10-13T12:12:59.681Z,17.50
2022-10-13T12:16:14.673Z,17.30
2022-10-13T12:17:47.432Z,17.20
2022-10-13T12:19:21.598Z,17.60
2022-10-13T12:20:54.963Z,17.20
2022-10-13T12:22:28.566Z,17.20
2022-10-13T12:24:07.309Z,17.30
2022-10-13T12:25:40.058Z,17.20
2022-10-13T12:27:18.878Z,17.30
2022-10-13T12:28:54.221Z,17.30
2022-10-13T12:30:29.509Z,17.30
2022-10-13T12:32:02.377Z,17.30
2022-10-13T12:33:36.421Z,17.20
2022-10-13T12:35:17.039Z,17.20
2022-10-13T12:36:54.982Z,17.20
2022-10-13T12:38:27.833Z,17.30
2022-10-13T12:40:01.476Z,17.30
2022-10-13T12:41:35.361Z,17.40
2022-10-13T12:43:08.252Z,17.50
2022-10-13T12:44:42.532Z,17.60
2022-10-13T12:46:35.659Z,17.60
2022-10-13T12:48:29.047Z,17.60
2022-10-13T12:50:16.645Z,17.70
2022-10-13T12:51:50.388Z,17.80
2022-10-13T12:53:27.566Z,17.80
2022-10-13T12:55:00.325Z,17.80
2022-10-13T12:56:33.510Z,17.80
2022-10-13T12:58:06.535Z,17.80
2022-10-13T12:59:42.602Z,17.70
2022-10-13T13:01:26.399Z,17.70
2022-10-13T13:02:59.964Z,17.70
2022-10-13T13:04:43.137Z,17.70
2022-10-13T13:06:23.684Z,17.80
2022-10-13T13:07:56.421Z,17.70
2022-10-13T13:09:29.868Z,17.70
2022-10-13T13:11:04.152Z,17.70
2022-10-13T13:12:37.333Z,17.70
2022-10-13T13:14:28.696Z,17.80
2022-10-13T13:16:14.744Z,17.80
2022-10-13T13:18:04.575Z,17.80
2022-10-13T13:19:37.971Z,17.80
2022-10-13T13:21:12.605Z,17.80
2022-10-13T13:22:45.370Z,17.70
2022-10-13T13:24:28.761Z,17.70
2022-10-13T13:26:13.337Z,17.60
2022-10-13T13:27:46.115Z,17.60
2022-10-13T13:29:18.969Z,17.60
2022-10-13T13:30:51.780Z,17.60
2022-10-13T13:32:25.744Z,17.60
2022-10-13T13:33:59.996Z,17.60
2022-10-13T13:35:32.811Z,17.60
2022-10-13T13:37:05.712Z,17.60
2022-10-13T13:38:38.447Z,17.60
2022-10-13T13:40:16.003Z,17.60
2022-10-13T13:41:48.883Z,17.50
2022-10-13T13:43:21.636Z,17.50
2022-10-13T13:44:54.337Z,17.50
2022-10-13T13:46:27.579Z,17.50
2022-10-13T13:48:01.112Z,17.50
2022-10-13T13:49:35.230Z,17.40
2022-10-13T13:51:09.249Z,17.40
2022-10-13T13:52:42.015Z,17.30
2022-10-13T13:54:14.803Z,17.10
2022-10-13T13:55:48.421Z,17.10
2022-10-13T13:57:21.797Z,17.00
2022-10-13T13:58:54.891Z,17.00
2022-10-13T14:00:27.742Z,17.00
2022-10-13T14:02:01.041Z,17.00
2022-10-13T14:03:33.820Z,17.00
2022-10-13T14:05:08.608Z,17.00
2022-10-13T14:06:41.295Z,17.00
2022-10-13T14:08:14.051Z,16.90
2022-10-13T14:09:47.085Z,16.90
2022-10-13T14:11:19.907Z,16.80
2022-10-13T14:12:52.794Z,16.70
2022-10-13T14:14:25.995Z,16.70
2022-10-13T14:15:58.951Z,16.60
2022-10-13T14:17:31.639Z,16.60
2022-10-13T14:19:04.494Z,16.50
2022-10-13T14:20:41.304Z,16.40
2022-10-13T14:22:14.038Z,16.40
2022-10-13T14:23:47.225Z,16.40
2022-10-13T14:25:20.151Z,16.40
2022-10-13T14:26:52.826Z,16.40
2022-10-13T14:28:25.792Z,16.30
2022-10-13T14:29:58.533Z,16.40
2022-10-13T14:31:31.616Z,16.40
2022-10-13T14:33:04.941Z,16.50
2022-10-13T14:34:37.677Z,16.50
2022-10-13T14:36:12.075Z,16.60
2022-10-13T14:37:44.915Z,16.60
2022-10-13T14:39:17.647Z,16.60
2022-10-13T14:40:50.469Z,16.50
2022-10-13T14:42:23.167Z,16.60
2022-10-13T14:43:56.416Z,16.50
2022-10-13T14:45:29.164Z,16.60
2022-10-13T14:47:01.932Z,16.70
2022-10-13T14:48:35.429Z,17.00
2022-10-13T14:50:08.539Z,16.70
2022-10-13T14:51:42.717Z,16.80
2022-10-13T14:53:16.193Z,16.80
2022-10-13T14:54:48.883Z,16.80
2022-10-13T14:56:22.554Z,16.90
2022-10-13T14:57:55.290Z,16.80
2022-10-13T14:59:28.188Z,16.80
2022-10-13T15:01:00.903Z,16.70
2022-10-13T15:02:33.609Z,16.70
2022-10-13T15:04:06.319Z,16.70
2022-10-13T15:05:39.370Z,16.60
2022-10-13T15:07:13.616Z,16.60
2022-10-13T15:08:46.867Z,16.50
2022-10-13T15:10:19.726Z,16.50
2022-10-13T15:11:52.466Z,16.40
2022-10-13T15:13:24.282Z,16.50
2022-10-13T15:14:57.183Z,16.50
2022-10-13T15:16:33.133Z,16.50
2022-10-13T15:18:06.419Z,16.50
2022-10-13T15:19:39.257Z,16.50
2022-10-13T15:21:11.992Z,16.50
2022-10-13T15:22:46.107Z,16.50
2022-10-13T15:24:18.819Z,16.40
2022-10-13T15:25:52.439Z,16.40
2022-10-13T15:27:25.167Z,16.30
2022-10-13T15:28:57.958Z,16.30
2022-10-13T15:30:33.640Z,16.20
2022-10-13T15:32:10.417Z,16.20
2022-10-13T15:33:43.808Z,16.10
2022-10-13T15:35:16.535Z,16.10
2022-10-13T15:36:49.274Z,16.00
2022-10-13T15:38:23.434Z,16.00
2022-10-13T15:39:57.565Z,16.00
2022-10-13T15:41:30.506Z,15.90
2022-10-13T15:43:03.232Z,15.80
2022-10-13T15:45:08.895Z,15.80
2022-10-13T15:46:31.396Z,15.80
2022-10-13T15:48:04.556Z,15.70
2022-10-13T15:49:38.377Z,15.70
2022-10-13T15:51:13.713Z,15.70
2022-10-13T15:52:46.635Z,15.60
2022-10-13T15:54:21.438Z,15.60
2022-10-13T15:55:54.650Z,15.60
2022-10-13T15:57:33.266Z,15.50
2022-10-13T15:59:06.104Z,15.50
2022-10-13T16:00:39.835Z,15.40
2022-10-13T16:02:12.679Z,15.50
2022-10-13T16:03:45.735Z,15.30
2022-10-13T16:05:18.982Z,15.30
2022-10-13T16:06:51.717Z,15.20
2022-10-13T16:08:24.496Z,15.10
2022-10-13T16:09:58.557Z,15.00
2022-10-13T16:11:31.308Z,15.00
2022-10-13T16:13:04.080Z,14.90
2022-10-13T16:14:36.873Z,14.90
2022-10-13T16:16:12.337Z,14.90
2022-10-13T16:17:46.165Z,14.80
2022-10-13T16:19:19.113Z,14.80
2022-10-13T16:20:51.824Z,14.80
2022-10-13T16:22:24.596Z,14.70
2022-10-13T16:23:57.374Z,14.70
2022-10-13T16:25:31.996Z,14.70
2022-10-13T16:27:04.836Z,14.70
2022-10-13T16:28:37.721Z,14.60
2022-10-13T16:30:10.920Z,14.60
2022-10-13T16:31:44.156Z,14.70
2022-10-13T16:33:16.951Z,14.60
2022-10-13T16:34:48.724Z,14.60
2022-10-13T16:36:21.789Z,14.60
2022-10-13T16:37:54.670Z,14.60
2022-10-13T16:39:28.437Z,14.60
2022-10-13T16:41:05.199Z,14.50
2022-10-13T16:42:38.142Z,14.60
2022-10-13T16:44:10.957Z,14.60
2022-10-13T16:45:59.167Z,14.60
2022-10-13T16:47:32.919Z,14.50
2022-10-13T16:49:05.666Z,14.50
2022-10-13T16:50:38.853Z,14.50
2022-10-13T16:52:11.730Z,14.50
2022-10-13T16:53:48.025Z,14.50
2022-10-13T16:55:20.781Z,14.40
2022-10-13T16:56:54.968Z,14.40
2022-10-13T16:58:27.750Z,14.40
2022-10-13T17:00:00.765Z,14.30
2022-10-13T17:01:34.155Z,14.40
2022-10-13T17:03:07.424Z,14.40
2022-10-13T17:04:40.379Z,14.30
2022-10-13T17:06:14.160Z,14.30
2022-10-13T17:07:46.967Z,14.40
2022-10-13T17:09:19.843Z,14.40
2022-10-13T17:10:57.963Z,14.30
2022-10-13T17:12:32.493Z,14.30
2022-10-13T17:14:05.471Z,14.30
2022-10-13T17:15:38.250Z,14.30
2022-10-13T17:17:11.207Z,14.20
2022-10-13T17:18:44.164Z,14.20
2022-10-13T17:20:17.067Z,14.10
2022-10-13T17:21:49.820Z,14.10
2022-10-13T17:23:21.929Z,14.10
2022-10-13T17:24:54.822Z,14.00
2022-10-13T17:26:27.556Z,14.00
2022-10-13T17:28:01.750Z,13.90
2022-10-13T17:29:34.466Z,13.90
2022-10-13T17:31:09.437Z,13.90
2022-10-13T17:32:42.219Z,13.90
2022-10-13T17:34:14.994Z,13.80
2022-10-13T17:35:47.765Z,13.80
2022-10-13T17:37:20.703Z,13.80
2022-10-13T17:38:55.055Z,13.70
2022-10-13T17:40:27.836Z,13.60
2022-10-13T17:42:00.707Z,13.70
2022-10-13T17:43:35.547Z,13.70
2022-10-13T17:45:08.994Z,13.60
2022-10-13T17:46:42.036Z,13.60
2022-10-13T17:48:16.667Z,13.50
2022-10-13T17:49:51.247Z,13.50
2022-10-13T17:51:23.077Z,13.50
2022-10-13T17:52:55.848Z,13.50
2022-10-13T17:54:28.648Z,13.60
2022-10-13T17:56:01.943Z,13.60
2022-10-13T17:57:35.739Z,13.70
2022-10-13T17:59:10.188Z,13.70
2022-10-13T18:01:11.383Z,13.70
2022-10-13T18:02:35.640Z,13.70
2022-10-13T18:04:10.516Z,13.60
2022-10-13T18:05:43.444Z,13.60
2022-10-13T18:07:16.167Z,13.60
2022-10-13T18:08:50.223Z,13.60
2022-10-13T18:10:22.998Z,13.50
2022-10-13T18:11:56.045Z,13.50
2022-10-13T18:13:28.818Z,13.50
2022-10-13T18:15:03.066Z,13.50
2022-10-13T18:16:35.944Z,13.60
2022-10-13T18:18:10.919Z,13.50
2022-10-13T18:19:43.875Z,13.50
2022-10-13T18:21:18.002Z,13.50
2022-10-13T18:22:50.738Z,13.50
2022-10-13T18:24:25.013Z,13.50
2022-10-13T18:26:00.518Z,13.50
2022-10-13T18:27:33.531Z,13.40
2022-10-13T18:29:07.399Z,13.40
2022-10-13T18:30:41.504Z,13.40
2022-10-13T18:32:14.218Z,13.40
2022-10-13T18:33:47.072Z,13.40
2022-10-13T18:35:19.768Z,13.40
2022-10-13T18:36:54.999Z,13.40
2022-10-13T18:38:28.178Z,13.40
2022-10-13T18:40:00.936Z,13.40
2022-10-13T18:41:34.007Z,13.40
2022-10-13T18:43:06.695Z,13.30
2022-10-13T18:44:39.510Z,13.30
2022-10-13T18:46:12.846Z,13.40
2022-10-13T18:47:45.615Z,13.40
2022-10-13T18:49:20.549Z,13.40
2022-10-13T18:50:53.361Z,13.40
2022-10-13T18:52:26.224Z,13.40
2022-10-13T18:53:59.491Z,13.40
2022-10-13T18:55:32.296Z,13.40
2022-10-13T18:57:05.157Z,13.40
2022-10-13T18:58:38.063Z,13.40
2022-10-13T19:00:11.371Z,13.40
2022-10-13T19:01:45.701Z,13.40
2022-10-13T19:03:18.405Z,13.40
2022-10-13T19:04:51.246Z,13.40
2022-10-13T19:06:26.921Z,13.30
2022-10-13T19:08:00.034Z,13.30
2022-10-13T19:09:32.943Z,13.30
2022-10-13T19:11:11.406Z,13.30
2022-10-13T19:12:44.189Z,13.20
2022-10-13T19:14:16.894Z,13.20
2022-10-13T19:15:49.694Z,13.20
2022-10-13T19:17:23.839Z,13.30
2022-10-13T19:18:57.133Z,13.20
2022-10-13T19:20:29.847Z,13.20
2022-10-13T19:22:02.677Z,13.20
2022-10-13T19:23:35.438Z,13.20
2022-10-13T19:25:08.547Z,13.20
2022-10-13T19:26:42.010Z,13.20
2022-10-13T19:28:14.953Z,13.20
2022-10-13T19:29:47.750Z,13.20
2022-10-13T19:31:21.549Z,13.20
2022-10-13T19:32:55.591Z,13.20
2022-10-13T19:34:28.449Z,13.20
2022-10-13T19:36:01.192Z,13.20
2022-10-13T19:37:33.881Z,13.20
2022-10-13T19:39:10.849Z,13.10
2022-10-13T19:40:44.622Z,13.10
2022-10-13T19:42:17.430Z,13.10
2022-10-13T19:43:50.224Z,13.10
2022-10-13T19:45:22.927Z,13.10
2022-10-13T19:46:55.716Z,12.80
2022-10-13T19:48:29.862Z,13.10
2022-10-13T19:50:02.621Z,13.00
2022-10-13T19:51:35.416Z,13.00
2022-10-13T19:53:08.204Z,13.00
2022-10-13T19:54:40.953Z,13.00
2022-10-13T19:56:20.368Z,13.00
2022-10-13T19:57:53.335Z,13.00
2022-10-13T19:59:26.091Z,12.90
2022-10-13T20:01:02.643Z,13.00
2022-10-13T20:02:35.429Z,13.00
2022-10-13T20:04:10.107Z,12.90
2022-10-13T20:05:43.339Z,12.90
2022-10-13T20:07:16.064Z,12.90
2022-10-13T20:08:49.090Z,12.90
2022-10-13T20:10:21.921Z,12.90
2022-10-13T20:11:54.668Z,12.90
2022-10-13T20:13:27.655Z,12.90
2022-10-13T20:15:00.335Z,12.80
2022-10-13T20:16:33.023Z,12.80
2022-10-13T20:18:06.566Z,12.80
2022-10-13T20:19:40.772Z,12.80
2022-10-13T20:21:13.674Z,12.80
2022-10-13T20:22:46.391Z,12.70
2022-10-13T20:24:19.606Z,12.70
2022-10-13T20:25:52.315Z,12.60
2022-10-13T20:27:25.023Z,12.60
2022-10-13T20:28:58.176Z,12.60